sensor_id;sensor_type;location;lat;lon;timestamp;P1;durP1;ratioP1;P2;durP2;ratioP2
2644;SDS011;15377;48.540;9.268;2022-07-21T00:00:37;65.73;;;52.80;;
2644;SDS011;15377;48.540;9.268;2022-07-21T00:03:03;73.73;;;58.17;;
2644;SDS011;15377;48.540;9.268;2022-07-21T00:05:28;80.23;;;58.07;;
2644;SDS011;15377;48.540;9.268;2022-07-21T00:07:54;61.80;;;50.43;;
2644;SDS011;15377;48.540;9.268;2022-07-21T00:10:21;69.40;;;52.17;;
2644;SDS011;15377;48.540;9.268;2022-07-21T00:12:48;70.43;;;54.50;;
2644;SDS011;15377;48.540;9.268;2022-07-21T00:15:14;84.57;;;54.67;;
2644;SDS011;15377;48.540;9.268;2022-07-21T00:17:41;102.00;;;60.90;;
2644;SDS011;15377;48.540;9.268;2022-07-21T00:20:07;96.40;;;59.87;;
2644;SDS011;15377;48.540;9.268;2022-07-21T00:22:33;97.37;;;56.97;;
2644;SDS011;15377;48.540;9.268;2022-07-21T00:24:58;60.57;;;46.40;;
2644;SDS011;15377;48.540;9.268;2022-07-21T00:27:24;63.93;;;52.27;;
2644;SDS011;15377;48.540;9.268;2022-07-21T00:29:50;81.07;;;58.10;;
2644;SDS011;15377;48.540;9.268;2022-07-21T00:32:16;67.10;;;51.57;;
2644;SDS011;15377;48.540;9.268;2022-07-21T00:34:41;62.27;;;51.60;;
2644;SDS011;15377;48.540;9.268;2022-07-21T00:37:09;88.67;;;57.10;;
2644;SDS011;15377;48.540;9.268;2022-07-21T00:39:35;81.60;;;60.13;;
2644;SDS011;15377;48.540;9.268;2022-07-21T00:42:01;67.57;;;53.17;;
2644;SDS011;15377;48.540;9.268;2022-07-21T00:44:27;101.97;;;60.97;;
2644;SDS011;15377;48.540;9.268;2022-07-21T00:46:53;80.50;;;55.30;;
2644;SDS011;15377;48.540;9.268;2022-07-21T00:49:19;60.10;;;49.17;;
2644;SDS011;15377;48.540;9.268;2022-07-21T00:51:45;64.30;;;50.70;;
2644;SDS011;15377;48.540;9.268;2022-07-21T00:54:11;60.47;;;48.00;;
2644;SDS011;15377;48.540;9.268;2022-07-21T00:56:37;56.43;;;46.10;;
2644;SDS011;15377;48.540;9.268;2022-07-21T00:59:03;80.53;;;54.07;;
2644;SDS011;15377;48.540;9.268;2022-07-21T01:01:29;86.63;;;56.17;;
2644;SDS011;15377;48.540;9.268;2022-07-21T01:03:54;86.93;;;55.33;;
2644;SDS011;15377;48.540;9.268;2022-07-21T01:06:20;102.43;;;59.07;;
2644;SDS011;15377;48.540;9.268;2022-07-21T01:08:48;71.30;;;52.63;;
2644;SDS011;15377;48.540;9.268;2022-07-21T01:11:14;78.23;;;53.50;;
2644;SDS011;15377;48.540;9.268;2022-07-21T01:13:40;76.20;;;51.47;;
2644;SDS011;15377;48.540;9.268;2022-07-21T01:16:07;102.83;;;57.63;;
2644;SDS011;15377;48.540;9.268;2022-07-21T01:18:33;62.97;;;48.10;;
2644;SDS011;15377;48.540;9.268;2022-07-21T01:20:58;101.07;;;57.77;;
2644;SDS011;15377;48.540;9.268;2022-07-21T01:23:31;91.03;;;55.43;;
2644;SDS011;15377;48.540;9.268;2022-07-21T01:25:57;67.57;;;53.00;;
2644;SDS011;15377;48.540;9.268;2022-07-21T01:28:23;74.50;;;56.67;;
2644;SDS011;15377;48.540;9.268;2022-07-21T01:30:48;87.23;;;58.63;;
2644;SDS011;15377;48.540;9.268;2022-07-21T01:33:15;79.30;;;57.60;;
2644;SDS011;15377;48.540;9.268;2022-07-21T01:35:41;79.60;;;56.80;;
2644;SDS011;15377;48.540;9.268;2022-07-21T01:38:06;70.80;;;55.47;;
2644;SDS011;15377;48.540;9.268;2022-07-21T01:40:57;69.30;;;52.93;;
2644;SDS011;15377;48.540;9.268;2022-07-21T01:43:42;59.73;;;45.00;;
2644;SDS011;15377;48.540;9.268;2022-07-21T01:46:09;61.97;;;46.07;;
2644;SDS011;15377;48.540;9.268;2022-07-21T01:48:35;62.83;;;46.70;;
2644;SDS011;15377;48.540;9.268;2022-07-21T01:51:06;53.80;;;42.63;;
2644;SDS011;15377;48.540;9.268;2022-07-21T01:53:31;45.00;;;40.20;;
2644;SDS011;15377;48.540;9.268;2022-07-21T01:55:57;59.53;;;46.30;;
2644;SDS011;15377;48.540;9.268;2022-07-21T01:58:23;53.87;;;42.10;;
2644;SDS011;15377;48.540;9.268;2022-07-21T02:00:48;48.60;;;40.73;;
2644;SDS011;15377;48.540;9.268;2022-07-21T02:03:13;55.83;;;43.50;;
2644;SDS011;15377;48.540;9.268;2022-07-21T02:05:39;48.90;;;39.43;;
2644;SDS011;15377;48.540;9.268;2022-07-21T02:08:04;52.17;;;41.40;;
2644;SDS011;15377;48.540;9.268;2022-07-21T02:10:29;54.90;;;39.20;;
2644;SDS011;15377;48.540;9.268;2022-07-21T02:12:55;55.73;;;43.03;;
2644;SDS011;15377;48.540;9.268;2022-07-21T02:15:20;43.83;;;34.93;;
2644;SDS011;15377;48.540;9.268;2022-07-21T02:17:45;55.20;;;38.20;;
2644;SDS011;15377;48.540;9.268;2022-07-21T02:20:11;45.37;;;34.50;;
2644;SDS011;15377;48.540;9.268;2022-07-21T02:22:36;42.33;;;34.30;;
2644;SDS011;15377;48.540;9.268;2022-07-21T02:25:02;41.43;;;34.10;;
2644;SDS011;15377;48.540;9.268;2022-07-21T02:27:27;44.30;;;31.97;;
2644;SDS011;15377;48.540;9.268;2022-07-21T02:29:53;45.13;;;31.73;;
2644;SDS011;15377;48.540;9.268;2022-07-21T02:32:18;36.17;;;30.27;;
2644;SDS011;15377;48.540;9.268;2022-07-21T02:34:43;43.30;;;33.60;;
2644;SDS011;15377;48.540;9.268;2022-07-21T02:37:09;47.80;;;35.00;;
2644;SDS011;15377;48.540;9.268;2022-07-21T02:39:34;37.47;;;31.27;;
2644;SDS011;15377;48.540;9.268;2022-07-21T02:41:59;47.93;;;33.73;;
2644;SDS011;15377;48.540;9.268;2022-07-21T02:44:25;40.10;;;33.57;;
2644;SDS011;15377;48.540;9.268;2022-07-21T02:46:50;41.60;;;33.37;;
2644;SDS011;15377;48.540;9.268;2022-07-21T02:49:16;43.07;;;34.10;;
2644;SDS011;15377;48.540;9.268;2022-07-21T02:51:41;35.23;;;30.53;;
2644;SDS011;15377;48.540;9.268;2022-07-21T02:54:06;33.30;;;28.80;;
2644;SDS011;15377;48.540;9.268;2022-07-21T02:56:32;33.80;;;29.50;;
2644;SDS011;15377;48.540;9.268;2022-07-21T02:58:57;40.53;;;31.83;;
2644;SDS011;15377;48.540;9.268;2022-07-21T03:01:22;39.90;;;32.23;;
2644;SDS011;15377;48.540;9.268;2022-07-21T03:03:48;34.90;;;29.50;;
2644;SDS011;15377;48.540;9.268;2022-07-21T03:06:13;43.50;;;32.80;;
2644;SDS011;15377;48.540;9.268;2022-07-21T03:08:38;40.77;;;32.57;;
2644;SDS011;15377;48.540;9.268;2022-07-21T03:11:04;36.00;;;31.00;;
2644;SDS011;15377;48.540;9.268;2022-07-21T03:13:30;35.40;;;29.70;;
2644;SDS011;15377;48.540;9.268;2022-07-21T03:15:55;35.73;;;30.33;;
2644;SDS011;15377;48.540;9.268;2022-07-21T03:18:20;41.30;;;31.80;;
2644;SDS011;15377;48.540;9.268;2022-07-21T03:20:46;30.60;;;25.43;;
2644;SDS011;15377;48.540;9.268;2022-07-21T03:23:12;43.40;;;30.33;;
2644;SDS011;15377;48.540;9.268;2022-07-21T03:25:37;39.10;;;27.90;;
2644;SDS011;15377;48.540;9.268;2022-07-21T03:28:03;44.30;;;31.17;;
2644;SDS011;15377;48.540;9.268;2022-07-21T03:30:29;30.47;;;26.27;;
2644;SDS011;15377;48.540;9.268;2022-07-21T03:32:55;32.83;;;25.77;;
2644;SDS011;15377;48.540;9.268;2022-07-21T03:35:21;37.97;;;27.50;;
2644;SDS011;15377;48.540;9.268;2022-07-21T03:40:16;36.97;;;31.03;;
2644;SDS011;15377;48.540;9.268;2022-07-21T03:42:42;43.90;;;35.03;;
2644;SDS011;15377;48.540;9.268;2022-07-21T03:45:09;41.80;;;33.87;;
2644;SDS011;15377;48.540;9.268;2022-07-21T03:47:35;35.37;;;31.53;;
2644;SDS011;15377;48.540;9.268;2022-07-21T03:50:00;40.63;;;32.97;;
2644;SDS011;15377;48.540;9.268;2022-07-21T03:52:26;40.23;;;32.33;;
2644;SDS011;15377;48.540;9.268;2022-07-21T03:54:51;46.90;;;31.13;;
2644;SDS011;15377;48.540;9.268;2022-07-21T03:57:33;39.57;;;31.43;;
2644;SDS011;15377;48.540;9.268;2022-07-21T04:00:20;34.67;;;27.07;;
2644;SDS011;15377;48.540;9.268;2022-07-21T04:02:48;34.23;;;25.77;;
2644;SDS011;15377;48.540;9.268;2022-07-21T04:05:14;29.40;;;23.80;;
2644;SDS011;15377;48.540;9.268;2022-07-21T04:07:40;26.97;;;23.97;;
2644;SDS011;15377;48.540;9.268;2022-07-21T04:10:12;36.80;;;28.77;;
2644;SDS011;15377;48.540;9.268;2022-07-21T04:12:39;38.70;;;26.20;;
2644;SDS011;15377;48.540;9.268;2022-07-21T04:15:05;46.63;;;31.20;;
2644;SDS011;15377;48.540;9.268;2022-07-21T04:17:32;39.07;;;30.37;;
2644;SDS011;15377;48.540;9.268;2022-07-21T04:19:58;36.93;;;27.83;;
2644;SDS011;15377;48.540;9.268;2022-07-21T04:22:23;32.53;;;26.20;;
2644;SDS011;15377;48.540;9.268;2022-07-21T04:24:49;36.30;;;28.10;;
2644;SDS011;15377;48.540;9.268;2022-07-21T04:27:14;43.17;;;31.90;;
2644;SDS011;15377;48.540;9.268;2022-07-21T04:29:40;33.40;;;27.57;;
2644;SDS011;15377;48.540;9.268;2022-07-21T04:32:05;42.70;;;32.77;;
2644;SDS011;15377;48.540;9.268;2022-07-21T04:34:31;36.17;;;30.93;;
2644;SDS011;15377;48.540;9.268;2022-07-21T04:36:56;34.87;;;26.97;;
2644;SDS011;15377;48.540;9.268;2022-07-21T04:39:21;45.63;;;33.07;;
2644;SDS011;15377;48.540;9.268;2022-07-21T04:41:47;34.70;;;26.67;;
2644;SDS011;15377;48.540;9.268;2022-07-21T04:44:12;41.13;;;30.50;;
2644;SDS011;15377;48.540;9.268;2022-07-21T04:46:38;38.70;;;30.50;;
2644;SDS011;15377;48.540;9.268;2022-07-21T04:49:03;41.17;;;31.10;;
2644;SDS011;15377;48.540;9.268;2022-07-21T04:51:29;33.70;;;27.97;;
2644;SDS011;15377;48.540;9.268;2022-07-21T04:53:54;42.53;;;32.30;;
2644;SDS011;15377;48.540;9.268;2022-07-21T04:56:19;43.70;;;32.83;;
2644;SDS011;15377;48.540;9.268;2022-07-21T04:58:45;39.13;;;29.97;;
2644;SDS011;15377;48.540;9.268;2022-07-21T05:01:10;39.30;;;29.43;;
2644;SDS011;15377;48.540;9.268;2022-07-21T05:03:35;37.50;;;30.57;;
2644;SDS011;15377;48.540;9.268;2022-07-21T05:06:01;35.77;;;27.70;;
2644;SDS011;15377;48.540;9.268;2022-07-21T05:08:26;37.73;;;31.73;;
2644;SDS011;15377;48.540;9.268;2022-07-21T05:10:52;40.20;;;29.53;;
2644;SDS011;15377;48.540;9.268;2022-07-21T05:13:18;33.53;;;25.27;;
2644;SDS011;15377;48.540;9.268;2022-07-21T05:15:43;41.50;;;34.00;;
2644;SDS011;15377;48.540;9.268;2022-07-21T05:18:09;40.23;;;30.93;;
2644;SDS011;15377;48.540;9.268;2022-07-21T05:20:34;42.43;;;33.07;;
2644;SDS011;15377;48.540;9.268;2022-07-21T05:22:59;42.70;;;31.87;;
2644;SDS011;15377;48.540;9.268;2022-07-21T05:25:26;44.30;;;33.80;;
2644;SDS011;15377;48.540;9.268;2022-07-21T05:27:52;38.23;;;30.03;;
2644;SDS011;15377;48.540;9.268;2022-07-21T05:30:18;100.47;;;88.73;;
2644;SDS011;15377;48.540;9.268;2022-07-21T05:32:43;54.23;;;39.50;;
2644;SDS011;15377;48.540;9.268;2022-07-21T05:35:08;42.27;;;33.67;;
2644;SDS011;15377;48.540;9.268;2022-07-21T05:37:39;54.33;;;37.30;;
2644;SDS011;15377;48.540;9.268;2022-07-21T05:40:05;56.13;;;38.37;;
2644;SDS011;15377;48.540;9.268;2022-07-21T05:42:32;49.97;;;36.20;;
2644;SDS011;15377;48.540;9.268;2022-07-21T05:44:58;49.10;;;36.90;;
2644;SDS011;15377;48.540;9.268;2022-07-21T05:47:23;41.83;;;32.60;;
2644;SDS011;15377;48.540;9.268;2022-07-21T05:49:49;38.03;;;31.00;;
2644;SDS011;15377;48.540;9.268;2022-07-21T05:52:14;38.47;;;32.97;;
2644;SDS011;15377;48.540;9.268;2022-07-21T05:54:40;73.43;;;65.40;;
2644;SDS011;15377;48.540;9.268;2022-07-21T05:57:05;41.90;;;32.87;;
2644;SDS011;15377;48.540;9.268;2022-07-21T05:59:30;44.83;;;36.67;;
2644;SDS011;15377;48.540;9.268;2022-07-21T06:01:56;40.27;;;32.67;;
2644;SDS011;15377;48.540;9.268;2022-07-21T06:04:21;42.00;;;31.37;;
2644;SDS011;15377;48.540;9.268;2022-07-21T06:06:47;41.13;;;31.53;;
2644;SDS011;15377;48.540;9.268;2022-07-21T06:09:12;32.00;;;28.67;;
2644;SDS011;15377;48.540;9.268;2022-07-21T06:11:37;36.27;;;32.10;;
2644;SDS011;15377;48.540;9.268;2022-07-21T06:14:03;33.60;;;28.80;;
2644;SDS011;15377;48.540;9.268;2022-07-21T06:16:29;36.90;;;28.93;;
2644;SDS011;15377;48.540;9.268;2022-07-21T06:18:54;41.43;;;32.57;;
2644;SDS011;15377;48.540;9.268;2022-07-21T06:21:19;34.37;;;28.87;;
2644;SDS011;15377;48.540;9.268;2022-07-21T06:23:45;33.43;;;29.70;;
2644;SDS011;15377;48.540;9.268;2022-07-21T06:26:10;34.27;;;27.63;;
2644;SDS011;15377;48.540;9.268;2022-07-21T06:28:36;31.87;;;28.47;;
2644;SDS011;15377;48.540;9.268;2022-07-21T06:31:02;31.37;;;28.07;;
2644;SDS011;15377;48.540;9.268;2022-07-21T06:33:27;33.30;;;28.63;;
2644;SDS011;15377;48.540;9.268;2022-07-21T06:35:54;32.37;;;27.63;;
2644;SDS011;15377;48.540;9.268;2022-07-21T06:38:19;29.63;;;26.53;;
2644;SDS011;15377;48.540;9.268;2022-07-21T06:40:45;29.37;;;26.27;;
2644;SDS011;15377;48.540;9.268;2022-07-21T06:43:11;33.33;;;27.80;;
2644;SDS011;15377;48.540;9.268;2022-07-21T06:45:37;30.03;;;26.47;;
2644;SDS011;15377;48.540;9.268;2022-07-21T06:48:04;26.87;;;23.90;;
2644;SDS011;15377;48.540;9.268;2022-07-21T06:50:30;25.73;;;23.03;;
2644;SDS011;15377;48.540;9.268;2022-07-21T06:52:56;22.60;;;20.30;;
2644;SDS011;15377;48.540;9.268;2022-07-21T06:55:21;23.60;;;21.10;;
2644;SDS011;15377;48.540;9.268;2022-07-21T06:57:47;22.40;;;20.00;;
2644;SDS011;15377;48.540;9.268;2022-07-21T07:00:13;22.33;;;19.97;;
2644;SDS011;15377;48.540;9.268;2022-07-21T07:02:39;21.13;;;18.83;;
2644;SDS011;15377;48.540;9.268;2022-07-21T07:05:04;20.80;;;18.60;;
2644;SDS011;15377;48.540;9.268;2022-07-21T07:07:30;19.77;;;17.60;;
2644;SDS011;15377;48.540;9.268;2022-07-21T07:09:56;19.57;;;17.57;;
2644;SDS011;15377;48.540;9.268;2022-07-21T07:12:21;18.73;;;16.10;;
2644;SDS011;15377;48.540;9.268;2022-07-21T07:14:47;24.13;;;18.80;;
2644;SDS011;15377;48.540;9.268;2022-07-21T07:17:15;17.97;;;16.07;;
2644;SDS011;15377;48.540;9.268;2022-07-21T07:19:46;19.30;;;16.63;;
2644;SDS011;15377;48.540;9.268;2022-07-21T07:22:12;20.20;;;17.20;;
2644;SDS011;15377;48.540;9.268;2022-07-21T07:24:37;21.20;;;15.93;;
2644;SDS011;15377;48.540;9.268;2022-07-21T07:27:03;18.10;;;16.33;;
2644;SDS011;15377;48.540;9.268;2022-07-21T07:29:28;16.17;;;14.67;;
2644;SDS011;15377;48.540;9.268;2022-07-21T07:31:55;15.13;;;13.63;;
2644;SDS011;15377;48.540;9.268;2022-07-21T07:34:21;16.33;;;13.53;;
2644;SDS011;15377;48.540;9.268;2022-07-21T07:36:46;16.23;;;13.50;;
2644;SDS011;15377;48.540;9.268;2022-07-21T07:39:12;15.27;;;13.67;;
2644;SDS011;15377;48.540;9.268;2022-07-21T07:41:38;15.20;;;12.20;;
2644;SDS011;15377;48.540;9.268;2022-07-21T07:44:03;13.90;;;12.40;;
2644;SDS011;15377;48.540;9.268;2022-07-21T07:46:29;14.47;;;12.97;;
2644;SDS011;15377;48.540;9.268;2022-07-21T07:48:54;16.43;;;12.80;;
2644;SDS011;15377;48.540;9.268;2022-07-21T07:51:20;14.00;;;12.10;;
2644;SDS011;15377;48.540;9.268;2022-07-21T07:53:46;16.80;;;13.67;;
2644;SDS011;15377;48.540;9.268;2022-07-21T07:56:11;13.70;;;12.30;;
2644;SDS011;15377;48.540;9.268;2022-07-21T07:58:37;15.70;;;12.53;;
2644;SDS011;15377;48.540;9.268;2022-07-21T08:01:02;14.80;;;12.17;;
2644;SDS011;15377;48.540;9.268;2022-07-21T08:03:28;13.23;;;11.20;;
2644;SDS011;15377;48.540;9.268;2022-07-21T08:05:54;12.77;;;11.47;;
2644;SDS011;15377;48.540;9.268;2022-07-21T08:08:23;14.30;;;12.80;;
2644;SDS011;15377;48.540;9.268;2022-07-21T08:10:49;13.47;;;12.07;;
2644;SDS011;15377;48.540;9.268;2022-07-21T08:13:16;15.43;;;12.60;;
2644;SDS011;15377;48.540;9.268;2022-07-21T08:15:43;13.47;;;12.17;;
2644;SDS011;15377;48.540;9.268;2022-07-21T08:18:09;15.10;;;12.63;;
2644;SDS011;15377;48.540;9.268;2022-07-21T08:20:35;13.67;;;12.20;;
2644;SDS011;15377;48.540;9.268;2022-07-21T08:23:02;16.13;;;12.27;;
2644;SDS011;15377;48.540;9.268;2022-07-21T08:25:28;12.57;;;11.23;;
2644;SDS011;15377;48.540;9.268;2022-07-21T08:27:53;12.60;;;11.40;;
2644;SDS011;15377;48.540;9.268;2022-07-21T08:30:19;12.23;;;10.40;;
2644;SDS011;15377;48.540;9.268;2022-07-21T08:32:45;13.80;;;10.70;;
2644;SDS011;15377;48.540;9.268;2022-07-21T08:35:10;15.93;;;12.77;;
2644;SDS011;15377;48.540;9.268;2022-07-21T08:37:36;15.00;;;11.00;;
2644;SDS011;15377;48.540;9.268;2022-07-21T08:40:06;13.90;;;10.60;;
2644;SDS011;15377;48.540;9.268;2022-07-21T08:42:33;12.53;;;10.60;;
2644;SDS011;15377;48.540;9.268;2022-07-21T08:44:59;12.10;;;10.23;;
2644;SDS011;15377;48.540;9.268;2022-07-21T08:47:25;12.97;;;10.70;;
2644;SDS011;15377;48.540;9.268;2022-07-21T08:49:51;12.10;;;10.90;;
2644;SDS011;15377;48.540;9.268;2022-07-21T08:52:17;14.10;;;9.90;;
2644;SDS011;15377;48.540;9.268;2022-07-21T08:54:43;12.17;;;10.20;;
2644;SDS011;15377;48.540;9.268;2022-07-21T08:57:09;12.00;;;10.40;;
2644;SDS011;15377;48.540;9.268;2022-07-21T08:59:34;12.83;;;10.40;;
2644;SDS011;15377;48.540;9.268;2022-07-21T09:02:00;14.83;;;11.07;;
2644;SDS011;15377;48.540;9.268;2022-07-21T09:04:26;11.10;;;9.93;;
2644;SDS011;15377;48.540;9.268;2022-07-21T09:07:01;14.23;;;10.60;;
2644;SDS011;15377;48.540;9.268;2022-07-21T09:09:29;10.70;;;9.47;;
2644;SDS011;15377;48.540;9.268;2022-07-21T09:11:55;15.77;;;9.77;;
2644;SDS011;15377;48.540;9.268;2022-07-21T09:14:22;12.43;;;10.00;;
2644;SDS011;15377;48.540;9.268;2022-07-21T09:16:51;12.33;;;10.50;;
2644;SDS011;15377;48.540;9.268;2022-07-21T09:19:28;13.87;;;10.10;;
2644;SDS011;15377;48.540;9.268;2022-07-21T09:21:59;13.33;;;9.50;;
2644;SDS011;15377;48.540;9.268;2022-07-21T09:24:26;10.87;;;8.57;;
2644;SDS011;15377;48.540;9.268;2022-07-21T09:29:50;10.53;;;9.07;;
2644;SDS011;15377;48.540;9.268;2022-07-21T09:34:46;10.50;;;8.90;;
2644;SDS011;15377;48.540;9.268;2022-07-21T09:37:14;13.10;;;9.63;;
2644;SDS011;15377;48.540;9.268;2022-07-21T09:39:51;12.93;;;9.10;;
2644;SDS011;15377;48.540;9.268;2022-07-21T09:42:29;12.77;;;10.50;;
2644;SDS011;15377;48.540;9.268;2022-07-21T09:44:58;11.17;;;9.60;;
2644;SDS011;15377;48.540;9.268;2022-07-21T09:47:27;12.57;;;8.87;;
2644;SDS011;15377;48.540;9.268;2022-07-21T09:49:54;11.20;;;8.60;;
2644;SDS011;15377;48.540;9.268;2022-07-21T09:54:52;11.80;;;10.00;;
2644;SDS011;15377;48.540;9.268;2022-07-21T09:57:20;11.60;;;8.80;;
2644;SDS011;15377;48.540;9.268;2022-07-21T09:59:47;13.00;;;10.50;;
2644;SDS011;15377;48.540;9.268;2022-07-21T10:04:42;9.57;;;8.53;;
2644;SDS011;15377;48.540;9.268;2022-07-21T10:07:09;10.60;;;9.50;;
2644;SDS011;15377;48.540;9.268;2022-07-21T10:09:35;11.43;;;9.30;;
2644;SDS011;15377;48.540;9.268;2022-07-21T10:12:00;11.40;;;9.30;;
2644;SDS011;15377;48.540;9.268;2022-07-21T10:14:26;11.20;;;9.00;;
2644;SDS011;15377;48.540;9.268;2022-07-21T10:16:52;10.40;;;8.03;;
2644;SDS011;15377;48.540;9.268;2022-07-21T10:19:27;9.37;;;7.37;;
2644;SDS011;15377;48.540;9.268;2022-07-21T10:24:29;10.47;;;7.57;;
2644;SDS011;15377;48.540;9.268;2022-07-21T10:27:09;10.30;;;8.10;;
2644;SDS011;15377;48.540;9.268;2022-07-21T10:29:49;9.63;;;7.90;;
2644;SDS011;15377;48.540;9.268;2022-07-21T10:32:32;9.27;;;7.60;;
2644;SDS011;15377;48.540;9.268;2022-07-21T10:37:56;9.50;;;7.27;;
2644;SDS011;15377;48.540;9.268;2022-07-21T10:45:32;10.27;;;7.40;;
2644;SDS011;15377;48.540;9.268;2022-07-21T10:47:58;10.30;;;7.73;;
2644;SDS011;15377;48.540;9.268;2022-07-21T10:50:35;11.17;;;7.33;;
2644;SDS011;15377;48.540;9.268;2022-07-21T10:53:03;9.07;;;7.73;;
2644;SDS011;15377;48.540;9.268;2022-07-21T10:55:45;8.40;;;6.30;;
2644;SDS011;15377;48.540;9.268;2022-07-21T10:58:27;8.33;;;6.70;;
2644;SDS011;15377;48.540;9.268;2022-07-21T11:03:23;7.80;;;6.90;;
2644;SDS011;15377;48.540;9.268;2022-07-21T11:08:42;8.27;;;6.30;;
2644;SDS011;15377;48.540;9.268;2022-07-21T11:11:10;8.40;;;6.97;;
2644;SDS011;15377;48.540;9.268;2022-07-21T11:22:14;8.23;;;6.37;;
2644;SDS011;15377;48.540;9.268;2022-07-21T11:24:47;8.70;;;7.00;;
2644;SDS011;15377;48.540;9.268;2022-07-21T11:27:15;7.67;;;6.63;;
2644;SDS011;15377;48.540;9.268;2022-07-21T11:29:43;8.30;;;6.60;;
2644;SDS011;15377;48.540;9.268;2022-07-21T11:32:11;9.13;;;6.70;;
2644;SDS011;15377;48.540;9.268;2022-07-21T11:37:09;7.33;;;6.23;;
2644;SDS011;15377;48.540;9.268;2022-07-21T11:39:36;7.43;;;5.83;;
2644;SDS011;15377;48.540;9.268;2022-07-21T11:42:03;7.40;;;5.83;;
2644;SDS011;15377;48.540;9.268;2022-07-21T11:44:30;8.83;;;6.07;;
2644;SDS011;15377;48.540;9.268;2022-07-21T11:46:56;8.50;;;6.80;;
2644;SDS011;15377;48.540;9.268;2022-07-21T11:49:23;8.40;;;5.90;;
2644;SDS011;15377;48.540;9.268;2022-07-21T11:51:53;9.73;;;7.70;;
2644;SDS011;15377;48.540;9.268;2022-07-21T11:57:06;9.30;;;7.27;;
2644;SDS011;15377;48.540;9.268;2022-07-21T11:59:32;7.40;;;6.43;;
2644;SDS011;15377;48.540;9.268;2022-07-21T12:02:02;9.43;;;7.00;;
2644;SDS011;15377;48.540;9.268;2022-07-21T12:04:52;8.83;;;6.50;;
2644;SDS011;15377;48.540;9.268;2022-07-21T12:07:27;7.10;;;5.90;;
2644;SDS011;15377;48.540;9.268;2022-07-21T12:09:56;9.60;;;5.97;;
2644;SDS011;15377;48.540;9.268;2022-07-21T12:17:38;10.33;;;6.33;;
2644;SDS011;15377;48.540;9.268;2022-07-21T12:23:19;7.80;;;6.50;;
2644;SDS011;15377;48.540;9.268;2022-07-21T12:25:50;8.10;;;6.43;;
2644;SDS011;15377;48.540;9.268;2022-07-21T12:28:16;10.10;;;6.97;;
2644;SDS011;15377;48.540;9.268;2022-07-21T12:30:44;9.70;;;5.83;;
2644;SDS011;15377;48.540;9.268;2022-07-21T12:33:15;7.30;;;6.00;;
2644;SDS011;15377;48.540;9.268;2022-07-21T12:35:42;8.40;;;5.43;;
2644;SDS011;15377;48.540;9.268;2022-07-21T12:40:35;8.87;;;5.90;;
2644;SDS011;15377;48.540;9.268;2022-07-21T12:43:03;7.60;;;5.60;;
2644;SDS011;15377;48.540;9.268;2022-07-21T12:45:57;8.60;;;5.53;;
2644;SDS011;15377;48.540;9.268;2022-07-21T12:48:32;7.47;;;5.27;;
2644;SDS011;15377;48.540;9.268;2022-07-21T12:51:05;9.40;;;5.27;;
2644;SDS011;15377;48.540;9.268;2022-07-21T12:53:42;7.70;;;5.90;;
2644;SDS011;15377;48.540;9.268;2022-07-21T12:56:17;7.80;;;5.60;;
2644;SDS011;15377;48.540;9.268;2022-07-21T12:58:45;7.00;;;5.30;;
2644;SDS011;15377;48.540;9.268;2022-07-21T13:01:11;8.50;;;5.10;;
2644;SDS011;15377;48.540;9.268;2022-07-21T13:03:38;8.20;;;5.40;;
2644;SDS011;15377;48.540;9.268;2022-07-21T13:06:04;8.00;;;5.00;;
2644;SDS011;15377;48.540;9.268;2022-07-21T13:08:31;6.73;;;5.10;;
2644;SDS011;15377;48.540;9.268;2022-07-21T13:10:58;7.07;;;5.20;;
2644;SDS011;15377;48.540;9.268;2022-07-21T13:13:23;7.10;;;4.70;;
2644;SDS011;15377;48.540;9.268;2022-07-21T13:15:50;7.77;;;4.93;;
2644;SDS011;15377;48.540;9.268;2022-07-21T13:18:15;7.20;;;5.20;;
2644;SDS011;15377;48.540;9.268;2022-07-21T13:20:41;7.17;;;5.10;;
2644;SDS011;15377;48.540;9.268;2022-07-21T13:23:06;7.60;;;5.17;;
2644;SDS011;15377;48.540;9.268;2022-07-21T13:25:34;7.07;;;4.97;;
2644;SDS011;15377;48.540;9.268;2022-07-21T13:28:00;6.90;;;4.77;;
2644;SDS011;15377;48.540;9.268;2022-07-21T13:30:26;7.13;;;4.87;;
2644;SDS011;15377;48.540;9.268;2022-07-21T13:32:51;6.53;;;5.13;;
2644;SDS011;15377;48.540;9.268;2022-07-21T13:35:17;6.80;;;4.97;;
2644;SDS011;15377;48.540;9.268;2022-07-21T13:37:42;7.23;;;4.80;;
2644;SDS011;15377;48.540;9.268;2022-07-21T13:40:08;7.70;;;5.10;;
2644;SDS011;15377;48.540;9.268;2022-07-21T13:42:33;6.70;;;4.60;;
2644;SDS011;15377;48.540;9.268;2022-07-21T13:44:59;7.00;;;5.30;;
2644;SDS011;15377;48.540;9.268;2022-07-21T13:47:24;7.20;;;5.00;;
2644;SDS011;15377;48.540;9.268;2022-07-21T13:49:49;7.20;;;5.13;;
2644;SDS011;15377;48.540;9.268;2022-07-21T13:52:15;8.30;;;5.17;;
2644;SDS011;15377;48.540;9.268;2022-07-21T13:54:40;8.13;;;5.13;;
2644;SDS011;15377;48.540;9.268;2022-07-21T13:57:06;7.67;;;4.70;;
2644;SDS011;15377;48.540;9.268;2022-07-21T13:59:31;11.00;;;5.27;;
2644;SDS011;15377;48.540;9.268;2022-07-21T14:01:57;7.00;;;4.83;;
2644;SDS011;15377;48.540;9.268;2022-07-21T14:04:23;8.20;;;5.40;;
2644;SDS011;15377;48.540;9.268;2022-07-21T14:06:49;6.67;;;4.97;;
2644;SDS011;15377;48.540;9.268;2022-07-21T14:09:17;6.53;;;4.60;;
2644;SDS011;15377;48.540;9.268;2022-07-21T14:11:43;7.07;;;5.00;;
2644;SDS011;15377;48.540;9.268;2022-07-21T14:14:09;7.20;;;5.03;;
2644;SDS011;15377;48.540;9.268;2022-07-21T14:16:35;6.70;;;5.27;;
2644;SDS011;15377;48.540;9.268;2022-07-21T14:19:01;6.90;;;4.93;;
2644;SDS011;15377;48.540;9.268;2022-07-21T14:21:26;9.90;;;4.63;;
2644;SDS011;15377;48.540;9.268;2022-07-21T14:23:52;6.40;;;4.77;;
2644;SDS011;15377;48.540;9.268;2022-07-21T14:26:38;7.37;;;5.10;;
2644;SDS011;15377;48.540;9.268;2022-07-21T14:29:06;6.50;;;5.07;;
2644;SDS011;15377;48.540;9.268;2022-07-21T14:31:32;7.00;;;5.03;;
2644;SDS011;15377;48.540;9.268;2022-07-21T14:33:58;6.30;;;4.63;;
2644;SDS011;15377;48.540;9.268;2022-07-21T14:36:23;7.77;;;4.60;;
2644;SDS011;15377;48.540;9.268;2022-07-21T14:38:49;7.27;;;5.40;;
2644;SDS011;15377;48.540;9.268;2022-07-21T14:41:14;7.20;;;5.30;;
2644;SDS011;15377;48.540;9.268;2022-07-21T14:43:39;8.10;;;5.87;;
2644;SDS011;15377;48.540;9.268;2022-07-21T14:46:05;7.17;;;5.27;;
2644;SDS011;15377;48.540;9.268;2022-07-21T14:48:30;7.30;;;5.07;;
2644;SDS011;15377;48.540;9.268;2022-07-21T14:50:56;10.40;;;4.90;;
2644;SDS011;15377;48.540;9.268;2022-07-21T14:53:21;8.60;;;5.47;;
2644;SDS011;15377;48.540;9.268;2022-07-21T14:55:46;6.90;;;5.10;;
2644;SDS011;15377;48.540;9.268;2022-07-21T14:58:12;8.23;;;5.47;;
2644;SDS011;15377;48.540;9.268;2022-07-21T15:00:37;6.90;;;4.90;;
2644;SDS011;15377;48.540;9.268;2022-07-21T15:03:03;7.20;;;5.30;;
2644;SDS011;15377;48.540;9.268;2022-07-21T15:05:28;6.73;;;4.90;;
2644;SDS011;15377;48.540;9.268;2022-07-21T15:07:53;5.90;;;4.13;;
2644;SDS011;15377;48.540;9.268;2022-07-21T15:10:19;8.53;;;6.00;;
2644;SDS011;15377;48.540;9.268;2022-07-21T15:12:44;6.97;;;5.30;;
2644;SDS011;15377;48.540;9.268;2022-07-21T15:15:10;8.33;;;5.10;;
2644;SDS011;15377;48.540;9.268;2022-07-21T15:17:35;7.63;;;6.43;;
2644;SDS011;15377;48.540;9.268;2022-07-21T15:20:02;9.17;;;6.87;;
2644;SDS011;15377;48.540;9.268;2022-07-21T15:22:28;12.50;;;10.07;;
2644;SDS011;15377;48.540;9.268;2022-07-21T15:24:58;10.63;;;8.60;;
2644;SDS011;15377;48.540;9.268;2022-07-21T15:27:25;10.00;;;7.87;;
2644;SDS011;15377;48.540;9.268;2022-07-21T15:29:51;10.97;;;7.77;;
2644;SDS011;15377;48.540;9.268;2022-07-21T15:32:16;7.80;;;7.00;;
2644;SDS011;15377;48.540;9.268;2022-07-21T15:34:42;9.27;;;7.40;;